Time;durP1;ratioP1;P1;durP2;ratioP2;P2;SDS_P1;SDS_P2;PMS_P1;PMS_P2;Temp;Humidity;BMP_temperature;BMP_pressure;BME280_temperature;BME280_humidity;BME280_pressure;Samples;Min_cycle;Max_cycle;Signal;HPM_P1;HPM_P2
2021/12/22 00:01:40;;;;;;;29.63;10.15;;;;;;;-10.55;88.81;99621.17;1688274;83;20915;-83
2021/12/22 00:04:07;;;;;;;30.08;11.18;;;;;;;-10.61;88.77;99613.92;1696253;83;21248;-82
2021/12/22 00:06:34;;;;;;;27.48;11.20;;;;;;;-10.64;88.86;99616.11;1683427;83;21062;-83
2021/12/22 00:09:04;;;;;;;24.70;10.58;;;;;;;-10.67;88.77;99619.44;1697698;83;21129;-83
2021/12/22 00:11:32;;;;;;;23.38;9.85;;;;;;;-10.68;88.73;99627.57;1692947;83;21099;-82
2021/12/22 00:13:58;;;;;;;25.12;9.13;;;;;;;-10.68;88.75;99625.75;1680355;84;21083;-83
2021/12/22 00:16:25;;;;;;;21.30;8.10;;;;;;;-10.64;88.67;99630.70;1708389;83;21495;-81
2021/12/22 00:18:52;;;;;;;20.25;8.08;;;;;;;-10.64;88.58;99631.52;1680211;84;21032;-82
2021/12/22 00:21:20;;;;;;;19.67;8.58;;;;;;;-10.64;88.40;99637.33;1699613;83;21544;-84
2021/12/22 00:23:48;;;;;;;22.90;8.25;;;;;;;-10.75;88.08;99639.89;1702616;83;20899;-83
2021/12/22 00:26:15;;;;;;;23.18;8.78;;;;;;;-10.90;87.93;99639.82;1700162;83;21233;-82
2021/12/22 00:28:43;;;;;;;19.42;7.40;;;;;;;-11.02;88.17;99642.58;1706350;83;21074;-83
2021/12/22 00:31:13;;;;;;;18.98;7.67;;;;;;;-11.10;88.29;99642.13;1706720;82;21054;-84
2021/12/22 00:33:46;;;;;;;28.80;8.48;;;;;;;-11.19;88.46;99647.14;1688806;83;21150;-84
2021/12/22 00:36:09;;;;;;;29.50;9.48;;;;;;;-11.24;88.52;99652.63;1700711;83;21059;-83
2021/12/22 00:38:35;;;;;;;28.25;10.05;;;;;;;-11.31;88.76;99653.82;1709303;83;20936;-84
2021/12/22 00:41:02;;;;;;;24.55;10.45;;;;;;;-11.39;88.72;99649.38;1703261;83;21479;-84
2021/12/22 00:43:28;;;;;;;32.53;11.93;;;;;;;-11.43;88.63;99651.22;1690768;83;21100;-84
2021/12/22 00:45:56;;;;;;;30.15;10.93;;;;;;;-11.46;88.74;99651.56;1709602;83;21146;-84
2021/12/22 00:48:23;;;;;;;31.17;11.20;;;;;;;-11.51;88.58;99660.03;1674352;84;21666;-84
2021/12/22 00:50:51;;;;;;;28.30;11.33;;;;;;;-11.56;88.69;99660.24;1672894;83;21089;-84
2021/12/22 00:53:17;;;;;;;27.58;11.10;;;;;;;-11.64;88.52;99663.74;1704185;83;21000;-84
2021/12/22 00:55:43;;;;;;;33.53;12.25;;;;;;;-11.74;88.11;99664.44;1680426;84;21014;-81
2021/12/22 00:58:10;;;;;;;37.48;13.32;;;;;;;-11.83;88.04;99667.63;1683177;84;22152;-81
2021/12/22 01:00:36;;;;;;;37.08;12.82;;;;;;;-11.87;88.11;99671.61;1699444;83;21178;-81
2021/12/22 01:03:03;;;;;;;33.65;12.25;;;;;;;-11.85;88.48;99668.30;1690552;83;21114;-84
2021/12/22 01:05:31;;;;;;;40.78;13.22;;;;;;;-11.80;88.60;99678.38;1706168;83;21092;-84
2021/12/22 01:07:58;;;;;;;33.20;12.03;;;;;;;-11.78;88.77;99677.72;1678672;84;21059;-82
2021/12/22 01:10:28;;;;;;;35.28;13.08;;;;;;;-11.71;89.08;99681.31;1701652;82;21602;-83
2021/12/22 01:12:58;;;;;;;41.40;14.23;;;;;;;-11.64;89.58;99679.64;1692612;83;20944;-83
2021/12/22 01:15:25;;;;;;;32.60;12.45;;;;;;;-11.56;89.98;99678.78;1703890;83;21095;-83
2021/12/22 01:18:02;;;;;;;34.33;12.23;;;;;;;-11.49;90.29;99684.53;1691910;83;21071;-82
2021/12/22 01:20:28;;;;;;;32.42;12.58;;;;;;;-11.39;90.60;99683.83;1672282;84;21577;-81
2021/12/22 01:22:51;;;;;;;31.20;10.28;;;;;;;-11.30;90.87;99677.17;1691431;83;21497;-81
2021/12/22 01:25:21;;;;;;;35.45;10.90;;;;;;;-11.22;91.24;99673.16;1697417;83;20936;-80
2021/12/22 01:27:47;;;;;;;28.00;10.45;;;;;;;-11.13;91.47;99683.56;1709046;83;21024;-81
2021/12/22 01:30:25;;;;;;;28.05;10.35;;;;;;;-11.05;91.57;99680.86;1672820;84;21036;-80
2021/12/22 01:32:55;;;;;;;31.42;11.35;;;;;;;-10.94;91.69;99680.95;1705212;83;21129;-79
2021/12/22 01:35:29;;;;;;;23.38;8.58;;;;;;;-10.84;91.83;99686.03;1705578;83;21470;-79
2021/12/22 01:37:55;;;;;;;18.15;7.85;;;;;;;-10.74;91.94;99688.78;1682014;84;21063;-79
2021/12/22 01:40:22;;;;;;;20.48;9.05;;;;;;;-10.64;92.36;99687.73;1702339;83;21628;-80
2021/12/22 01:42:50;;;;;;;17.82;7.33;;;;;;;-10.60;92.42;99693.02;1674489;84;21644;-80
2021/12/22 01:45:47;;;;;;;17.67;6.87;;;;;;;-10.59;92.23;99691.51;1709295;83;21101;-80
2021/12/22 01:50:50;;;;;;;18.75;6.78;;;;;;;-10.54;92.46;99696.29;1687769;83;20965;-83
2021/12/22 01:53:25;;;;;;;21.17;6.97;;;;;;;-10.54;92.30;99688.33;1708245;83;21050;-83
2021/12/22 01:56:22;;;;;;;16.00;6.22;;;;;;;-10.51;92.64;99694.11;1710503;83;20960;-82
2021/12/22 01:58:45;;;;;;;17.00;6.50;;;;;;;-10.49;92.70;99689.95;1709941;83;20983;-84
2021/12/22 02:01:14;;;;;;;25.68;7.97;;;;;;;-10.52;92.42;99695.61;1689933;83;21133;-84
2021/12/22 02:03:44;;;;;;;24.05;7.12;;;;;;;-10.53;92.83;99699.27;1672343;85;21676;-84
2021/12/22 02:06:11;;;;;;;21.45;6.35;;;;;;;-10.49;93.00;99708.03;1700928;83;21086;-82
2021/12/22 02:08:41;;;;;;;14.25;5.92;;;;;;;-10.46;92.76;99702.37;1698056;83;21201;-83
2021/12/22 02:11:08;;;;;;;19.62;6.78;;;;;;;-10.45;92.70;99709.33;1694294;83;21542;-82
2021/12/22 02:13:38;;;;;;;13.45;5.83;;;;;;;-10.41;92.72;99705.81;1682046;83;21766;-82
2021/12/22 02:16:08;;;;;;;16.48;5.90;;;;;;;-10.42;92.39;99710.80;1682818;83;21019;-82
2021/12/22 02:18:40;;;;;;;14.20;5.42;;;;;;;-10.41;92.58;99713.78;1687215;83;21589;-84
2021/12/22 02:21:06;;;;;;;14.35;5.65;;;;;;;-10.39;92.87;99712.57;1678713;83;20968;-85
2021/12/22 02:23:33;;;;;;;18.77;8.25;;;;;;;-10.38;92.64;99712.89;1702289;83;20999;-83
2021/12/22 02:28:46;;;;;;;18.77;7.70;;;;;;;-10.38;92.60;99715.55;1689097;83;21008;-80
2021/12/22 02:31:14;;;;;;;15.35;5.97;;;;;;;-10.39;92.30;99708.59;1710190;83;21170;-80
2021/12/22 02:33:41;;;;;;;19.10;7.60;;;;;;;-10.41;92.25;99711.13;1698913;83;21059;-84
2021/12/22 02:36:22;;;;;;;18.75;7.03;;;;;;;-10.43;92.39;99712.63;1697393;82;21000;-83
2021/12/22 02:38:42;;;;;;;16.55;5.72;;;;;;;-10.48;91.86;99710.18;1690015;83;21185;-84
2021/12/22 02:41:12;;;;;;;22.52;6.55;;;;;;;-10.56;91.68;99715.53;1690046;83;21094;-83
2021/12/22 02:43:52;;;;;;;19.45;6.78;;;;;;;-10.60;91.81;99715.56;1694155;83;21654;-82
2021/12/22 02:46:21;;;;;;;15.78;6.35;;;;;;;-10.68;91.46;99713.78;1684352;83;20955;-80
2021/12/22 02:48:47;;;;;;;19.25;6.90;;;;;;;-10.77;91.55;99722.29;1694014;82;21138;-82
2021/12/22 02:51:14;;;;;;;12.20;5.00;;;;;;;-10.78;92.21;99719.31;1695626;83;21102;-82
2021/12/22 02:53:49;;;;;;;12.78;5.30;;;;;;;-10.81;92.09;99716.18;1703395;83;20917;-84
2021/12/22 03:04:10;;;;;;;16.15;6.47;;;;;;;-10.80;92.78;99721.31;1654573;83;21111;-83
2021/12/22 03:06:40;;;;;;;20.43;5.87;;;;;;;-10.75;93.39;99722.94;1678313;84;21051;-83
2021/12/22 03:09:29;;;;;;;30.43;7.85;;;;;;;-10.75;92.84;99726.09;1722928;82;21054;-82
2021/12/22 03:11:59;;;;;;;24.90;7.28;;;;;;;-10.80;92.45;99733.25;1750999;81;21066;-82
2021/12/22 03:14:27;;;;;;;67.12;14.23;;;;;;;-10.86;92.36;99733.11;1744748;81;20892;-82
2021/12/22 03:16:55;;;;;;;44.08;8.73;;;;;;;-10.90;92.07;99733.13;1718851;82;21162;-82
2021/12/22 03:19:24;;;;;;;52.48;11.68;;;;;;;-10.97;92.04;99738.30;1714582;82;21118;-81
2021/12/22 03:21:57;;;;;;;72.08;15.05;;;;;;;-10.99;92.81;99742.98;1699114;81;20960;-82
2021/12/22 03:24:21;;;;;;;69.40;13.45;;;;;;;-11.02;92.43;99745.48;1710588;83;21063;-82
2021/12/22 03:26:49;;;;;;;60.63;14.20;;;;;;;-11.06;92.15;99743.34;1705938;83;21080;-79
2021/12/22 03:29:17;;;;;;;42.95;10.75;;;;;;;-11.08;92.17;99748.81;1708172;83;21587;-80
2021/12/22 03:31:45;;;;;;;48.55;10.85;;;;;;;-11.10;91.89;99751.31;1708030;83;20904;-79
2021/12/22 03:34:13;;;;;;;74.35;14.87;;;;;;;-11.19;91.42;99743.06;1706149;83;21178;-81
2021/12/22 03:36:42;;;;;;;49.65;10.90;;;;;;;-11.24;91.63;99743.57;1708030;81;21057;-82
2021/12/22 03:39:09;;;;;;;34.98;7.97;;;;;;;-11.26;91.74;99738.94;1712350;83;21039;-82
2021/12/22 03:41:36;;;;;;;26.15;8.20;;;;;;;-11.29;91.44;99744.58;1705475;82;21928;-81
2021/12/22 03:44:04;;;;;;;30.15;9.18;;;;;;;-11.33;91.78;99747.24;1704504;83;21573;-84
2021/12/22 03:46:31;;;;;;;47.67;11.57;;;;;;;-11.35;91.75;99760.66;1692153;83;21076;-82
2021/12/22 03:48:58;;;;;;;103.50;17.10;;;;;;;-11.40;91.55;99764.81;1694569;83;20965;-84
2021/12/22 03:51:26;;;;;;;77.78;14.25;;;;;;;-11.44;91.63;99772.77;1712880;82;21015;-84
2021/12/22 03:53:53;;;;;;;42.48;9.18;;;;;;;-11.45;91.92;99785.69;1672041;84;21104;-84
2021/12/22 03:56:20;;;;;;;31.25;7.85;;;;;;;-11.42;91.94;99784.86;1685103;83;20991;-82
2021/12/22 03:58:48;;;;;;;29.92;9.58;;;;;;;-11.39;92.00;99781.87;1694604;83;21196;-81
2021/12/22 04:01:14;;;;;;;23.87;6.85;;;;;;;-11.32;92.39;99785.17;1685389;83;21074;-80
2021/12/22 04:03:44;;;;;;;22.32;5.65;;;;;;;-11.27;92.19;99792.11;1691222;83;21023;-80
2021/12/22 04:06:11;;;;;;;41.13;10.68;;;;;;;-11.23;92.47;99793.43;1714248;83;22177;-80
2021/12/22 04:08:37;;;;;;;44.65;9.73;;;;;;;-11.17;92.75;99794.08;1698466;83;21003;-85
2021/12/22 04:11:04;;;;;;;20.72;6.37;;;;;;;-11.13;92.38;99792.74;1704272;83;21029;-83
2021/12/22 04:13:31;;;;;;;20.30;7.03;;;;;;;-11.08;92.35;99789.08;1700425;83;20954;-83
2021/12/22 04:15:59;;;;;;;14.03;5.33;;;;;;;-11.04;92.23;99788.56;1692152;83;20893;-85
2021/12/22 04:18:25;;;;;;;18.55;6.22;;;;;;;-11.02;91.59;99795.85;1696280;83;21119;-80
2021/12/22 04:20:51;;;;;;;22.55;6.30;;;;;;;-11.01;91.38;99794.03;1707838;82;21411;-84
2021/12/22 04:23:18;;;;;;;22.77;6.10;;;;;;;-10.95;92.08;99797.29;1694357;83;20889;-84
2021/12/22 04:25:46;;;;;;;27.25;6.33;;;;;;;-10.87;91.63;99800.41;1696685;83;20948;-83
2021/12/22 04:28:12;;;;;;;20.52;5.28;;;;;;;-10.84;91.29;99801.40;1686117;82;21088;-83
2021/12/22 04:30:47;;;;;;;19.67;6.20;;;;;;;-10.78;91.59;99808.66;1706211;83;21514;-83
2021/12/22 04:33:14;;;;;;;30.08;7.17;;;;;;;-10.73;91.57;99799.19;1701368;83;21609;-80
2021/12/22 04:35:41;;;;;;;45.70;10.72;;;;;;;-10.64;91.40;99803.13;1707410;82;21110;-81
2021/12/22 04:38:07;;;;;;;48.08;9.80;;;;;;;-10.59;91.33;99808.25;1701367;83;21044;-80
2021/12/22 04:40:34;;;;;;;24.92;5.83;;;;;;;-10.57;90.96;99800.12;1711054;81;20975;-81
2021/12/22 04:43:00;;;;;;;17.52;5.65;;;;;;;-10.58;90.10;99799.80;1697668;83;21574;-80
2021/12/22 04:45:27;;;;;;;14.87;5.80;;;;;;;-10.59;89.97;99808.75;1689161;83;20929;-80
2021/12/22 04:47:53;;;;;;;18.60;6.05;;;;;;;-10.58;90.05;99799.30;1709169;83;20964;-80
2021/12/22 04:50:21;;;;;;;28.02;7.58;;;;;;;-10.57;89.49;99808.08;1702932;83;21187;-81
2021/12/22 04:55:32;;;;;;;20.88;5.10;;;;;;;-10.49;88.98;99821.30;1656342;83;21142;-79
2021/12/22 04:57:59;;;;;;;13.58;5.37;;;;;;;-10.45;88.84;99815.98;1708567;82;21093;-79
2021/12/22 05:00:29;;;;;;;10.38;4.53;;;;;;;-10.42;88.67;99825.75;1699071;80;21094;-79
2021/12/22 05:02:56;;;;;;;14.87;4.62;;;;;;;-10.40;88.78;99822.92;1714280;81;21034;-78
2021/12/22 05:05:23;;;;;;;23.85;6.00;;;;;;;-10.43;87.29;99823.27;1738605;79;21229;-80
2021/12/22 05:07:50;;;;;;;17.07;5.20;;;;;;;-10.49;86.98;99830.59;1726997;81;21139;-80
2021/12/22 05:10:17;;;;;;;11.88;4.35;;;;;;;-10.51;87.44;99833.92;1705250;82;21037;-82
2021/12/22 05:12:44;;;;;;;9.85;4.37;;;;;;;-10.53;87.45;99830.61;1729611;81;21014;-83
2021/12/22 05:15:12;;;;;;;8.85;4.53;;;;;;;-10.48;87.95;99838.88;1733787;80;21006;-79
2021/12/22 05:20:14;;;;;;;14.55;5.62;;;;;;;-10.41;87.55;99844.66;1717261;79;21150;-78
2021/12/22 05:22:41;;;;;;;14.95;4.75;;;;;;;-10.40;87.05;99845.48;1743312;81;21870;-80
2021/12/22 05:25:10;;;;;;;8.55;3.02;;;;;;;-10.48;86.24;99846.34;1714805;81;21117;-79
2021/12/22 05:27:37;;;;;;;8.25;4.03;;;;;;;-10.53;86.03;99851.34;1715003;81;21563;-78
2021/12/22 05:30:06;;;;;;;16.55;4.53;;;;;;;-10.57;85.71;99859.81;1701434;82;21000;-78
2021/12/22 05:32:35;;;;;;;10.93;4.20;;;;;;;-10.64;86.74;99853.55;1625853;87;20997;-80
2021/12/22 05:35:05;;;;;;;18.90;5.50;;;;;;;-10.63;86.64;99859.17;1689001;83;21050;-81
2021/12/22 05:37:32;;;;;;;14.15;5.05;;;;;;;-10.59;86.24;99864.47;1697954;83;21012;-81
2021/12/22 05:39:59;;;;;;;14.87;4.30;;;;;;;-10.57;86.20;99863.80;1706014;83;21712;-79
2021/12/22 05:42:26;;;;;;;11.45;3.83;;;;;;;-10.57;85.70;99867.78;1694596;83;21058;-80
2021/12/22 05:44:53;;;;;;;10.82;3.40;;;;;;;-10.59;85.10;99868.45;1683108;83;21603;-79
2021/12/22 05:47:19;;;;;;;10.72;3.52;;;;;;;-10.59;85.81;99865.30;1709620;82;21037;-78
2021/12/22 05:49:45;;;;;;;13.50;4.80;;;;;;;-10.55;85.25;99873.73;1703424;83;21007;-77
2021/12/22 05:52:12;;;;;;;16.40;5.22;;;;;;;-10.57;84.39;99869.10;1698962;82;21095;-80
2021/12/22 05:54:39;;;;;;;16.73;5.05;;;;;;;-10.58;84.03;99870.10;1697665;82;20956;-79
2021/12/22 05:57:06;;;;;;;17.77;5.33;;;;;;;-10.56;84.24;99874.73;1692135;83;21144;-81
2021/12/22 05:59:32;;;;;;;17.90;4.80;;;;;;;-10.54;83.98;99874.89;1690217;83;20984;-79
2021/12/22 06:01:59;;;;;;;15.55;6.00;;;;;;;-10.50;83.48;99880.69;1692505;83;21067;-77
2021/12/22 06:04:25;;;;;;;23.83;8.05;;;;;;;-10.47;84.22;99879.84;1708708;83;21583;-76
2021/12/22 06:06:52;;;;;;;17.92;6.80;;;;;;;-10.39;84.56;99884.26;1711508;83;21137;-80
2021/12/22 06:09:19;;;;;;;18.55;6.65;;;;;;;-10.34;84.20;99887.22;1705103;83;21166;-80
2021/12/22 06:11:47;;;;;;;16.32;5.60;;;;;;;-10.28;84.53;99889.19;1707085;82;20905;-81
2021/12/22 06:14:13;;;;;;;9.83;3.98;;;;;;;-10.25;83.97;99892.82;1706232;81;21079;-81
2021/12/22 06:16:40;;;;;;;12.73;5.33;;;;;;;-10.21;82.98;99894.13;1712914;81;21064;-75
2021/12/22 06:19:09;;;;;;;14.35;4.25;;;;;;;-10.23;82.57;99904.09;1708646;83;20952;-76
2021/12/22 06:21:35;;;;;;;9.28;2.80;;;;;;;-10.22;82.87;99904.92;1711255;83;21866;-75
2021/12/22 06:24:03;;;;;;;7.95;2.40;;;;;;;-10.26;81.10;99908.92;1694912;82;21004;-72
2021/12/22 06:26:29;;;;;;;8.23;3.42;;;;;;;-10.31;80.99;99905.45;1702676;82;21039;-76
2021/12/22 06:28:56;;;;;;;8.13;3.20;;;;;;;-10.31;81.50;99912.59;1699325;83;20954;-77
2021/12/22 06:31:23;;;;;;;8.38;3.55;;;;;;;-10.31;81.01;99921.88;1701579;83;21110;-78
2021/12/22 06:33:49;;;;;;;8.58;3.85;;;;;;;-10.35;79.69;99916.09;1707980;81;21190;-76
2021/12/22 06:36:17;;;;;;;17.52;5.58;;;;;;;-10.38;80.30;99923.90;1702518;82;21051;-77
2021/12/22 06:38:43;;;;;;;12.63;4.42;;;;;;;-10.37;79.86;99934.02;1698970;83;21066;-78
2021/12/22 06:41:10;;;;;;;11.97;5.05;;;;;;;-10.39;79.62;99938.67;1709256;81;21091;-77
2021/12/22 06:43:36;;;;;;;19.80;7.35;;;;;;;-10.40;80.68;99938.38;1710229;81;21122;-80
2021/12/22 06:46:03;;;;;;;27.82;8.25;;;;;;;-10.40;80.03;99944.51;1711691;82;21108;-79
2021/12/22 06:48:29;;;;;;;17.95;5.28;;;;;;;-10.37;80.24;99945.96;1702477;83;21578;-79
2021/12/22 06:50:56;;;;;;;17.52;6.85;;;;;;;-10.41;79.16;99942.85;1710839;81;21854;-72
2021/12/22 06:53:22;;;;;;;21.90;7.25;;;;;;;-10.38;80.11;99946.95;1709906;83;21483;-72
2021/12/22 06:55:49;;;;;;;19.52;6.87;;;;;;;-10.35;79.90;99946.62;1697745;82;21526;-70
2021/12/22 06:58:16;;;;;;;15.20;5.42;;;;;;;-10.30;80.15;99946.94;1708266;81;21104;-69
2021/12/22 07:00:42;;;;;;;10.45;4.47;;;;;;;-10.28;78.80;99951.56;1721795;81;20988;-72
2021/12/22 07:03:09;;;;;;;11.08;4.87;;;;;;;-10.28;78.96;99954.23;1735118;81;21042;-72
2021/12/22 07:05:35;;;;;;;7.58;3.00;;;;;;;-10.23;79.13;99949.23;1729758;81;21101;-69
2021/12/22 07:08:02;;;;;;;6.95;2.90;;;;;;;-10.22;79.26;99956.69;1744575;81;21578;-73
2021/12/22 07:10:29;;;;;;;8.75;2.85;;;;;;;-10.20;79.65;99962.16;1742286;81;22253;-70
2021/12/22 07:12:57;;;;;;;10.03;3.90;;;;;;;-10.15;79.12;99960.28;1714363;81;38611;-71
2021/12/22 07:15:24;;;;;;;10.13;4.45;;;;;;;-10.11;79.53;99957.11;1703580;82;21152;-78
2021/12/22 07:17:51;;;;;;;10.23;4.45;;;;;;;-10.06;79.42;99954.77;1709103;82;20988;-82
2021/12/22 07:20:17;;;;;;;11.35;4.65;;;;;;;-10.00;79.98;99954.58;1697352;83;21202;-76
2021/12/22 07:22:44;;;;;;;10.98;4.90;;;;;;;-9.93;80.33;99956.04;1709766;81;21122;-75
2021/12/22 07:25:12;;;;;;;11.68;3.50;;;;;;;-9.87;80.66;99961.98;1706788;82;21013;-71
2021/12/22 07:27:38;;;;;;;9.30;4.15;;;;;;;-9.91;79.70;99964.66;1712117;82;20979;-77
2021/12/22 07:30:07;;;;;;;15.43;5.10;;;;;;;-9.91;79.96;99966.81;1710103;82;20981;-73
2021/12/22 07:32:33;;;;;;;9.60;4.15;;;;;;;-9.84;80.70;99973.59;1711105;82;21175;-72
2021/12/22 07:35:41;;;;;;;11.55;4.70;;;;;;;-9.76;80.88;99973.02;1708129;82;21516;-72
2021/12/22 07:38:37;;;;;;;15.68;4.83;;;;;;;-9.73;80.29;99971.34;1706146;82;20969;-71
2021/12/22 07:41:04;;;;;;;10.88;3.87;;;;;;;-9.68;79.62;99978.79;1701445;83;21112;-73
2021/12/22 07:43:31;;;;;;;9.35;3.75;;;;;;;-9.67;78.10;99980.45;1691556;83;21110;-73
2021/12/22 07:45:58;;;;;;;10.30;3.67;;;;;;;-9.66;78.68;99975.45;1701264;83;20977;-72
2021/12/22 07:48:26;;;;;;;8.10;3.20;;;;;;;-9.69;74.72;99987.27;1696464;83;21216;-74
2021/12/22 07:50:52;;;;;;;9.73;3.20;;;;;;;-9.80;74.24;99987.66;1684530;83;22266;-79
2021/12/22 07:53:20;;;;;;;14.83;4.45;;;;;;;-9.80;74.97;99985.49;1702743;83;21668;-71
2021/12/22 07:55:46;;;;;;;13.22;5.00;;;;;;;-9.75;76.01;99993.27;1692752;83;21540;-80
2021/12/22 07:58:13;;;;;;;7.03;3.02;;;;;;;-9.75;72.95;99993.27;1635130;84;21410;-76
2021/12/22 08:00:40;;;;;;;10.03;3.30;;;;;;;-9.83;73.29;99990.69;1712854;82;21118;-77
2021/12/22 08:03:08;;;;;;;14.38;4.65;;;;;;;-9.79;74.53;99992.47;1714317;82;20894;-74
2021/12/22 08:05:36;;;;;;;11.25;3.90;;;;;;;-9.73;73.19;99994.42;1709774;81;21082;-73
2021/12/22 08:08:04;;;;;;;5.58;3.22;;;;;;;-9.80;73.02;99985.49;1710843;82;21097;-79
2021/12/22 08:10:31;;;;;;;11.22;4.67;;;;;;;-9.80;74.95;99988.98;1708418;81;21036;-78
2021/12/22 08:12:58;;;;;;;11.57;4.90;;;;;;;-9.77;74.35;99985.98;1690300;83;21558;-78
2021/12/22 08:15:24;;;;;;;7.92;3.72;;;;;;;-9.74;74.05;99983.47;1680321;83;21047;-78
2021/12/22 08:17:53;;;;;;;9.15;3.33;;;;;;;-9.75;73.21;99990.61;1712935;83;21114;-74
2021/12/22 08:20:20;;;;;;;10.23;4.42;;;;;;;-9.76;72.66;99989.46;1701273;83;21063;-74
2021/12/22 08:22:46;;;;;;;7.85;3.00;;;;;;;-9.81;71.84;99989.98;1705158;83;21743;-78
2021/12/22 08:25:13;;;;;;;10.48;3.12;;;;;;;-9.84;73.43;99987.70;1699738;81;21759;-75
2021/12/22 08:27:39;;;;;;;6.90;2.87;;;;;;;-9.64;74.15;99981.92;1705440;81;21060;-74
2021/12/22 08:30:06;;;;;;;8.23;2.90;;;;;;;-9.25;72.93;99991.15;1704879;83;21003;-72
2021/12/22 08:32:36;;;;;;;13.18;4.17;;;;;;;-8.74;73.71;99986.88;1704784;83;20980;-73
2021/12/22 08:35:07;;;;;;;16.15;6.03;;;;;;;-8.17;72.30;99985.73;1685273;83;20975;-72
2021/12/22 08:40:24;;;;;;;16.10;5.08;;;;;;;-7.27;69.99;99980.51;1681594;83;21113;-72
2021/12/22 08:42:59;;;;;;;10.48;3.80;;;;;;;-6.53;68.36;99983.59;1702737;81;20987;-74
2021/12/22 08:45:32;;;;;;;9.55;4.55;;;;;;;-6.03;63.13;99991.30;1699163;81;21735;-73
2021/12/22 08:48:03;;;;;;;15.38;5.20;;;;;;;-5.88;61.76;99988.98;1686718;83;21876;-70
2021/12/22 08:50:32;;;;;;;12.95;5.45;;;;;;;-5.80;63.20;99984.80;1695491;81;21553;-69
2021/12/22 08:53:01;;;;;;;14.13;5.03;;;;;;;-5.70;60.82;99992.73;1719266;81;20968;-71
2021/12/22 08:55:33;;;;;;;15.15;6.37;;;;;;;-5.67;61.79;99992.85;1691110;83;21143;-73
2021/12/22 08:58:03;;;;;;;17.75;6.53;;;;;;;-5.83;60.30;99988.70;1718149;81;21566;-73
2021/12/22 09:00:36;;;;;;;12.20;4.62;;;;;;;-6.13;61.53;99989.49;1716892;83;21019;-72
2021/12/22 09:03:05;;;;;;;10.38;4.12;;;;;;;-6.11;61.21;99990.63;1710151;82;20991;-74
2021/12/22 09:05:34;;;;;;;11.57;4.72;;;;;;;-5.70;61.82;99981.22;1711471;81;20960;-76
2021/12/22 09:08:03;;;;;;;12.30;4.60;;;;;;;-5.46;60.38;99983.36;1734412;81;21166;-74
2021/12/22 09:10:35;;;;;;;10.50;4.67;;;;;;;-5.37;58.46;99980.82;1712620;80;21076;-71
2021/12/22 09:13:07;;;;;;;7.65;3.47;;;;;;;-5.53;59.83;99983.86;1721956;81;21076;-74
2021/12/22 09:15:36;;;;;;;7.85;2.45;;;;;;;-5.80;57.83;99976.27;1723288;82;21555;-72
2021/12/22 09:18:06;;;;;;;8.80;2.95;;;;;;;-6.21;57.82;99992.33;1724214;82;21056;-68
2021/12/22 09:20:34;;;;;;;8.25;3.15;;;;;;;-6.55;59.41;99992.31;1697989;82;20996;-71
2021/12/22 09:23:09;;;;;;;13.48;4.28;;;;;;;-6.60;60.34;99985.39;1687046;83;21167;-70
2021/12/22 09:25:41;;;;;;;17.20;6.35;;;;;;;-6.46;60.86;99987.14;1714766;81;21063;-71
2021/12/22 09:28:09;;;;;;;9.20;4.03;;;;;;;-6.10;60.89;99990.95;1726314;82;21182;-70
2021/12/22 09:30:38;;;;;;;7.92;3.35;;;;;;;-5.58;60.52;99986.81;1723866;82;21087;-76
2021/12/22 09:33:07;;;;;;;7.95;3.25;;;;;;;-5.01;59.94;99983.65;1701978;82;21005;-72
2021/12/22 09:35:42;;;;;;;9.58;3.33;;;;;;;-4.41;56.46;99985.28;1707694;81;21007;-73
2021/12/22 09:38:13;;;;;;;8.63;3.40;;;;;;;-3.95;56.60;99981.67;1697095;83;21031;-71
2021/12/22 09:40:41;;;;;;;9.53;3.50;;;;;;;-3.66;54.50;99973.11;1684754;83;22421;-71
2021/12/22 09:43:11;;;;;;;5.72;2.92;;;;;;;-3.44;52.97;99969.58;1645907;86;21106;-72
2021/12/22 09:45:49;;;;;;;10.80;3.92;;;;;;;-3.30;53.29;99975.70;1699101;83;21143;-74
2021/12/22 09:48:29;;;;;;;;;;;;;;;-3.05;51.70;99973.89;1702017;83;21506;-73
2021/12/22 09:50:54;;;;;;;7.00;3.70;;;;;;;-2.97;51.33;99971.99;1674450;83;20219;-74
2021/12/22 09:53:26;;;;;;;17.12;6.12;;;;;;;-3.32;51.61;99977.25;1687101;83;21163;-74
2021/12/22 09:55:58;;;;;;;13.40;4.72;;;;;;;-3.54;52.80;99969.23;1686896;83;20981;-74
2021/12/22 09:58:31;;;;;;;19.17;7.15;;;;;;;-3.60;52.22;99980.00;1648000;84;20928;-76
2021/12/22 10:00:58;;;;;;;10.85;4.60;;;;;;;-3.41;53.77;99974.52;1698086;83;21079;-73
2021/12/22 10:03:31;;;;;;;23.05;8.25;;;;;;;-3.05;53.38;99965.84;1715026;81;21110;-72
2021/12/22 10:06:02;;;;;;;23.55;9.40;;;;;;;-3.26;51.29;99971.55;1729635;81;21418;-74
2021/12/22 10:08:39;;;;;;;12.05;5.12;;;;;;;-3.87;51.99;99974.73;1730353;81;21017;-74
2021/12/22 10:11:13;;;;;;;12.88;5.17;;;;;;;-4.68;51.97;99971.63;1698040;83;21048;-73
2021/12/22 10:13:45;;;;;;;8.43;4.05;;;;;;;-5.16;54.18;99978.98;1746068;81;21585;-74
2021/12/22 10:16:26;;;;;;;7.70;2.92;;;;;;;-5.28;54.83;99969.42;1737011;81;20951;-74
2021/12/22 10:19:09;;;;;;;13.45;4.35;;;;;;;-5.43;54.11;99976.78;1737979;81;21102;-74
2021/12/22 10:21:38;;;;;;;7.10;3.17;;;;;;;-5.72;55.56;99977.91;1732635;81;21055;-72
2021/12/22 10:24:11;;;;;;;11.28;4.33;;;;;;;-5.59;57.11;99978.48;1703438;81;21752;-73
2021/12/22 10:26:43;;;;;;;7.28;3.33;;;;;;;-5.22;55.55;99974.48;1678084;83;21010;-77
2021/12/22 10:29:14;;;;;;;13.35;4.87;;;;;;;-5.16;53.79;99963.75;1697227;82;21043;-72
2021/12/22 10:31:46;;;;;;;9.80;4.42;;;;;;;-5.09;55.61;99965.92;1704470;82;21153;-73
2021/12/22 10:34:22;;;;;;;11.40;4.45;;;;;;;-5.11;54.22;99963.97;1695926;83;21063;-72
2021/12/22 10:36:57;;;;;;;9.38;3.37;;;;;;;-5.15;54.08;99961.90;1677561;83;21031;-73
2021/12/22 10:39:36;;;;;;;8.30;3.70;;;;;;;-4.99;55.08;99964.19;1699429;82;21678;-74
2021/12/22 10:42:15;;;;;;;13.83;5.55;;;;;;;-4.63;53.98;99965.64;1711240;83;21067;-74
2021/12/22 10:44:44;;;;;;;13.72;4.78;;;;;;;-4.39;53.00;99952.40;1706484;83;22192;-74
2021/12/22 10:47:32;;;;;;;14.25;4.37;;;;;;;-4.19;56.78;99965.77;1694787;83;20888;-75
2021/12/22 10:50:05;;;;;;;9.25;3.40;;;;;;;-3.82;52.98;99956.66;1685755;83;21555;-74
2021/12/22 10:52:35;;;;;;;9.60;3.40;;;;;;;-3.66;51.48;99959.69;1692509;83;21123;-76
2021/12/22 10:55:13;;;;;;;10.98;3.85;;;;;;;-3.46;52.82;99958.23;1657514;84;21046;-75
2021/12/22 10:57:49;;;;;;;10.68;4.30;;;;;;;-3.20;51.76;99957.78;1707024;82;21831;-75
2021/12/22 11:00:24;;;;;;;10.93;4.22;;;;;;;-3.11;50.57;99950.59;1684802;82;21188;-76
2021/12/22 11:03:05;;;;;;;8.40;3.20;;;;;;;-2.89;50.40;99952.92;1720853;81;20966;-75
2021/12/22 11:05:48;;;;;;;8.63;2.98;;;;;;;-2.61;49.58;99947.91;1733304;81;21028;-76
2021/12/22 11:08:24;;;;;;;11.20;3.33;;;;;;;-2.66;47.67;99954.47;1718957;81;21094;-75
2021/12/22 11:10:53;;;;;;;6.65;3.40;;;;;;;-2.72;49.33;99956.16;1666844;84;21177;-78
2021/12/22 11:13:24;;;;;;;8.83;3.90;;;;;;;-2.61;49.59;99949.25;1693492;83;20972;-76
2021/12/22 11:15:54;;;;;;;9.88;4.05;;;;;;;-2.47;47.87;99952.65;1677981;84;21076;-75
2021/12/22 11:18:34;;;;;;;9.73;4.25;;;;;;;-2.38;47.15;99955.36;1704818;81;21135;-74
2021/12/22 11:21:17;;;;;;;8.05;4.12;;;;;;;-2.30;47.34;99956.91;1707287;83;20956;-74
2021/12/22 11:23:49;;;;;;;11.38;3.95;;;;;;;-2.35;46.20;99943.64;1701886;83;21785;-74
2021/12/22 11:26:22;;;;;;;8.98;3.85;;;;;;;-2.48;46.37;99950.48;1680425;83;21429;-74
2021/12/22 11:28:53;;;;;;;11.83;4.00;;;;;;;-2.61;46.52;99953.28;1673107;84;21483;-74
2021/12/22 11:31:28;;;;;;;10.05;3.65;;;;;;;-2.97;47.07;99959.91;1710850;83;20959;-74
2021/12/22 11:34:00;;;;;;;7.83;4.30;;;;;;;-2.95;47.81;99951.93;1700665;83;21013;-74
2021/12/22 11:36:28;;;;;;;5.83;3.42;;;;;;;-2.79;47.89;99960.77;1711519;82;21098;-73
2021/12/22 11:38:59;;;;;;;7.45;3.75;;;;;;;-3.15;46.52;99948.55;1712974;83;21011;-73
2021/12/22 11:41:32;;;;;;;6.17;3.67;;;;;;;-3.91;47.42;99956.59;1718241;81;21019;-72
2021/12/22 11:44:01;;;;;;;;;;;;;;;-4.47;49.94;99959.83;1714870;82;21077;-73
2021/12/22 11:46:35;;;;;;;11.00;4.25;;;;;;;-4.98;51.80;99959.14;1687841;83;20428;-72
2021/12/22 11:49:07;;;;;;;13.55;4.05;;;;;;;-5.37;52.25;99954.58;1712231;83;21115;-73
2021/12/22 11:51:35;;;;;;;9.35;4.55;;;;;;;-5.37;54.84;99955.91;1708333;82;20943;-72
2021/12/22 11:54:13;;;;;;;11.65;4.50;;;;;;;-5.08;53.05;99962.73;1672894;84;21030;-74